V Uno — 9HA3906 — position and weather

sailwx.info

Track history (hours):
 
Tides and Currents Weather Stations Pressure Air Temp Water Temp Dewpoint Dewpoint Depression Visibility Wind Speed Wind Dir Waves Ship Positions

V Uno

Last reported at 2017-Nov-23 12:59 UTC. Time now 2017-Nov-23 13:03 UTC.
Position N 54°32' E 018°33'.

Length 181 m; draft 10.1 m.

Type: Cargo ship. MMSI: 256408000.

Date/timePositionNaut miles runAvg speedWind from/ knotsBaromVisibWave heightAir tempDewpointWater temp
2017-Nov-23 12:59N 54°32' E 018°33'0 0.0
2017-Nov-23 12:29N 54°32' E 018°33'0 0.0
2017-Nov-23 11:59N 54°32' E 018°33'0 0.0
2017-Nov-23 11:29N 54°32' E 018°33'0 0.0
2017-Nov-23 10:59N 54°32' E 018°33'0 0.0
2017-Nov-23 10:29N 54°32' E 018°33'0 0.0
2017-Nov-23 09:59N 54°32' E 018°33'0 0.0
2017-Nov-23 09:29N 54°32' E 018°33'0 0.0
2017-Nov-23 08:59N 54°32' E 018°33'0 0.0
2017-Nov-23 08:29N 54°32' E 018°33'0 0.0
2017-Nov-23 07:59N 54°32' E 018°33'0 0.0
2017-Nov-23 07:29N 54°32' E 018°33'0 0.0
2017-Nov-23 06:56N 54°32' E 018°33'0 0.0
2017-Nov-23 06:29N 54°32' E 018°33'0 0.0
2017-Nov-23 05:59N 54°32' E 018°33'0 0.0
2017-Nov-23 05:29N 54°32' E 018°33'0 0.0
2017-Nov-23 04:59N 54°32' E 018°33'0 0.0
2017-Nov-23 04:29N 54°32' E 018°33'0 0.0
2017-Nov-23 03:59N 54°32' E 018°33'0 0.0
2017-Nov-23 03:29N 54°32' E 018°33'0 0.0
2017-Nov-23 02:59N 54°32' E 018°33'0 0.0
2017-Nov-23 02:29N 54°32' E 018°33'0 0.0
2017-Nov-23 01:59N 54°32' E 018°33'0 0.0
2017-Nov-23 01:29N 54°32' E 018°33'0 0.0
2017-Nov-23 00:59N 54°32' E 018°33'0 0.0
2017-Nov-23 00:29N 54°32' E 018°33'0 0.0
2017-Nov-22 23:59N 54°32' E 018°33'0 0.0
2017-Nov-22 23:29N 54°32' E 018°33'0 0.0
2017-Nov-22 22:59N 54°32' E 018°33'0 0.0
2017-Nov-22 22:23N 54°32' E 018°33'0 0.0
2017-Nov-22 21:59N 54°32' E 018°33'0 0.0
2017-Nov-22 21:29N 54°32' E 018°33'0 0.0
2017-Nov-22 20:53N 54°32' E 018°33'0 0.0
2017-Nov-22 20:26N 54°32' E 018°33'0 0.0
2017-Nov-22 19:53N 54°32' E 018°33'0 0.0
2017-Nov-22 19:20N 54°32' E 018°33'  
2017-Nov-20 00:26N 57°41' E 010°41'0 0.7
2017-Nov-20 00:00N 57°41' E 010°41'3 5.2
2017-Nov-19 23:31N 57°43' E 010°45'3 6.2
2017-Nov-19 22:59N 57°46' E 010°46'612.4
2017-Nov-19 22:30N 57°50' E 010°37'613.1
2017-Nov-19 22:00N 57°50' E 010°25'712.7
2017-Nov-19 21:29N 57°50' E 010°13'612.4
2017-Nov-19 21:00N 57°50' E 010°01'612.0
2017-Nov-19 20:29N 57°47' E 009°51'459 9.0
2017-Nov-17 17:17N 51°32' E 002°15'312.2
2017-Nov-17 17:00N 51°29' E 002°12'612.4
2017-Nov-17 16:30N 51°24' E 002°05'612.6
2017-Nov-17 16:01N 51°20' E 001°58'612.8
2017-Nov-17 15:30N 51°15' E 001°51'613.0
2017-Nov-17 15:01N 51°10' E 001°44'612.9
2017-Nov-17 14:30N 51°05' E 001°38'713.4
2017-Nov-17 14:00N 51°01' E 001°30'713.2
2017-Nov-17 13:29N 50°55' E 001°24'3112.3
2017-Nov-17 10:57N 50°31' E 000°53'812.6
2017-Nov-17 10:19N 50°28' E 000°41'512.7
2017-Nov-17 09:55N 50°27' E 000°34'913.0
2017-Nov-17 09:16N 50°24' E 000°21'413.7
2017-Nov-17 08:59N 50°23' E 000°15'714.1
2017-Nov-17 08:30N 50°21' E 000°05'714.4
2017-Nov-17 08:00N 50°19' W 000°06'714.5
2017-Nov-17 07:30N 50°17' W 000°17'2314.4
2017-Nov-17 05:54N 50°10' W 000°51'613.8
2017-Nov-17 05:30N 50°09' W 000°60'713.4
2017-Nov-17 05:00N 50°07' W 001°10'612.8
2017-Nov-17 04:30N 50°05' W 001°19'612.2
2017-Nov-17 04:00N 50°04' W 001°28'611.3
2017-Nov-17 03:30N 50°02' W 001°37'510.6
2017-Nov-17 03:00N 50°01' W 001°45'510.0
2017-Nov-17 02:30N 49°59' W 001°52'5 9.4
2017-Nov-17 02:00N 49°58' W 001°59'4 8.9
2017-Nov-17 01:30N 49°57' W 002°06'4 8.6
2017-Nov-17 01:00N 49°56' W 002°13'4 8.6
2017-Nov-17 00:30N 49°54' W 002°19'5 8.8
2017-Nov-16 23:54N 49°53' W 002°27'1310.1
2017-Nov-16 22:35N 49°49' W 002°47'110.7
2017-Nov-16 22:29N 49°49' W 002°48'6112.2
2017-Nov-16 17:31N 49°19' W 004°10'113.3
2017-Nov-16 17:27N 49°19' W 004°11'813.5
2017-Nov-16 16:51N 49°15' W 004°21'1212.8
2017-Nov-16 15:55N 49°09' W 004°37'613.8
2017-Nov-16 15:30N 49°06' W 004°45'712.8
2017-Nov-16 14:55N 49°03' W 004°55'4 7.6
2017-Nov-16 14:20N 49°00' W 005°01'411.0
2017-Nov-16 13:57N 48°58' W 005°06'4 8.8
2017-Nov-16 13:28N 48°56' W 005°12'511.8
2017-Nov-16 13:00N 48°53' W 005°19'713.9
2017-Nov-16 12:30N 48°49' W 005°28'713.2
2017-Nov-16 11:58N 48°45' W 005°36'5 7.3
2017-Nov-16 11:17N 48°41' W 005°40'613.1
2017-Nov-16 10:51N 48°36' W 005°44'612.7
2017-Nov-16 10:23N 48°31' W 005°48'712.1
2017-Nov-16 09:48N 48°25' W 005°53'512.0
2017-Nov-16 09:24N 48°20' W 005°57'611.9
2017-Nov-16 08:51N 48°14' W 006°01'411.6
2017-Nov-16 08:30N 48°11' W 006°04'911.5
2017-Nov-16 07:43N 48°03' W 006°10'211.4
2017-Nov-16 07:30N 48°01' W 006°12'611.3
2017-Nov-16 06:58N 47°55' W 006°16'511.3
2017-Nov-16 06:29N 47°50' W 006°20'511.3
2017-Nov-16 05:59N 47°45' W 006°24'611.4
2017-Nov-16 05:30N 47°40' W 006°27'611.2
2017-Nov-16 04:59N 47°35' W 006°31'611.6
2017-Nov-16 04:30N 47°30' W 006°35'712.5
2017-Nov-16 03:55N 47°24' W 006°40'716.9
2017-Nov-16 03:30N 47°18' W 006°45'5 9.3
2017-Nov-16 02:57N 47°13' W 006°48'2012.7
2017-Nov-16 01:24N 46°56' W 007°02'1612.3
2017-Nov-16 00:04N 46°41' W 007°13'312.1
2017-Nov-15 23:48N 46°38' W 007°15'412.4
2017-Nov-15 23:30N 46°35' W 007°18'16612.4
2017-Nov-15 10:04N 44°07' W 009°07'  
Track history (hours):
 
Tides and Currents Weather Stations Pressure Air Temp Water Temp Dewpoint Dewpoint Depression Visibility Wind Speed Wind Dir Waves Ship Positions

V Uno

Last reported at 2017-Nov-23 12:59 UTC. Time now 2017-Nov-23 13:03 UTC.
Position N 54°32' E 018°33'.

Length 181 m; draft 10.1 m.

Type: Cargo ship. MMSI: 256408000.

Date/timePositionNaut miles runAvg speedWind from/ knotsBaromVisibWave heightAir tempDewpointWater temp
2017-Nov-23 12:59N 54°32' E 018°33'0 0.0
2017-Nov-23 12:29N 54°32' E 018°33'0 0.0
2017-Nov-23 11:59N 54°32' E 018°33'0 0.0
2017-Nov-23 11:29N 54°32' E 018°33'0 0.0
2017-Nov-23 10:59N 54°32' E 018°33'0 0.0
2017-Nov-23 10:29N 54°32' E 018°33'0 0.0
2017-Nov-23 09:59N 54°32' E 018°33'0 0.0
2017-Nov-23 09:29N 54°32' E 018°33'0 0.0
2017-Nov-23 08:59N 54°32' E 018°33'0 0.0
2017-Nov-23 08:29N 54°32' E 018°33'0 0.0
2017-Nov-23 07:59N 54°32' E 018°33'0 0.0
2017-Nov-23 07:29N 54°32' E 018°33'0 0.0
2017-Nov-23 06:56N 54°32' E 018°33'0 0.0
2017-Nov-23 06:29N 54°32' E 018°33'0 0.0
2017-Nov-23 05:59N 54°32' E 018°33'0 0.0
2017-Nov-23 05:29N 54°32' E 018°33'0 0.0
2017-Nov-23 04:59N 54°32' E 018°33'0 0.0
2017-Nov-23 04:29N 54°32' E 018°33'0 0.0
2017-Nov-23 03:59N 54°32' E 018°33'0 0.0
2017-Nov-23 03:29N 54°32' E 018°33'0 0.0
2017-Nov-23 02:59N 54°32' E 018°33'0 0.0
2017-Nov-23 02:29N 54°32' E 018°33'0 0.0
2017-Nov-23 01:59N 54°32' E 018°33'0 0.0
2017-Nov-23 01:29N 54°32' E 018°33'0 0.0
2017-Nov-23 00:59N 54°32' E 018°33'0 0.0
2017-Nov-23 00:29N 54°32' E 018°33'0 0.0
2017-Nov-22 23:59N 54°32' E 018°33'0 0.0
2017-Nov-22 23:29N 54°32' E 018°33'0 0.0
2017-Nov-22 22:59N 54°32' E 018°33'0 0.0
2017-Nov-22 22:23N 54°32' E 018°33'0 0.0
2017-Nov-22 21:59N 54°32' E 018°33'0 0.0
2017-Nov-22 21:29N 54°32' E 018°33'0 0.0
2017-Nov-22 20:53N 54°32' E 018°33'0 0.0
2017-Nov-22 20:26N 54°32' E 018°33'0 0.0
2017-Nov-22 19:53N 54°32' E 018°33'0 0.0
2017-Nov-22 19:20N 54°32' E 018°33'  
2017-Nov-20 00:26N 57°41' E 010°41'0 0.7
2017-Nov-20 00:00N 57°41' E 010°41'3 5.2
2017-Nov-19 23:31N 57°43' E 010°45'3 6.2
2017-Nov-19 22:59N 57°46' E 010°46'612.4
2017-Nov-19 22:30N 57°50' E 010°37'613.1
2017-Nov-19 22:00N 57°50' E 010°25'712.7
2017-Nov-19 21:29N 57°50' E 010°13'612.4
2017-Nov-19 21:00N 57°50' E 010°01'612.0
2017-Nov-19 20:29N 57°47' E 009°51'459 9.0
2017-Nov-17 17:17N 51°32' E 002°15'312.2
2017-Nov-17 17:00N 51°29' E 002°12'612.4
2017-Nov-17 16:30N 51°24' E 002°05'612.6
2017-Nov-17 16:01N 51°20' E 001°58'612.8
2017-Nov-17 15:30N 51°15' E 001°51'613.0
2017-Nov-17 15:01N 51°10' E 001°44'612.9
2017-Nov-17 14:30N 51°05' E 001°38'713.4
2017-Nov-17 14:00N 51°01' E 001°30'713.2
2017-Nov-17 13:29N 50°55' E 001°24'3112.3
2017-Nov-17 10:57N 50°31' E 000°53'812.6
2017-Nov-17 10:19N 50°28' E 000°41'512.7
2017-Nov-17 09:55N 50°27' E 000°34'913.0
2017-Nov-17 09:16N 50°24' E 000°21'413.7
2017-Nov-17 08:59N 50°23' E 000°15'714.1
2017-Nov-17 08:30N 50°21' E 000°05'714.4
2017-Nov-17 08:00N 50°19' W 000°06'714.5
2017-Nov-17 07:30N 50°17' W 000°17'2314.4
2017-Nov-17 05:54N 50°10' W 000°51'613.8
2017-Nov-17 05:30N 50°09' W 000°60'713.4
2017-Nov-17 05:00N 50°07' W 001°10'612.8
2017-Nov-17 04:30N 50°05' W 001°19'612.2
2017-Nov-17 04:00N 50°04' W 001°28'611.3
2017-Nov-17 03:30N 50°02' W 001°37'510.6
2017-Nov-17 03:00N 50°01' W 001°45'510.0
2017-Nov-17 02:30N 49°59' W 001°52'5 9.4
2017-Nov-17 02:00N 49°58' W 001°59'4 8.9
2017-Nov-17 01:30N 49°57' W 002°06'4 8.6
2017-Nov-17 01:00N 49°56' W 002°13'4 8.6
2017-Nov-17 00:30N 49°54' W 002°19'5 8.8
2017-Nov-16 23:54N 49°53' W 002°27'1310.1
2017-Nov-16 22:35N 49°49' W 002°47'110.7
2017-Nov-16 22:29N 49°49' W 002°48'6112.2
2017-Nov-16 17:31N 49°19' W 004°10'113.3
2017-Nov-16 17:27N 49°19' W 004°11'813.5
2017-Nov-16 16:51N 49°15' W 004°21'1212.8
2017-Nov-16 15:55N 49°09' W 004°37'613.8
2017-Nov-16 15:30N 49°06' W 004°45'712.8
2017-Nov-16 14:55N 49°03' W 004°55'4 7.6
2017-Nov-16 14:20N 49°00' W 005°01'411.0
2017-Nov-16 13:57N 48°58' W 005°06'4 8.8
2017-Nov-16 13:28N 48°56' W 005°12'511.8
2017-Nov-16 13:00N 48°53' W 005°19'713.9
2017-Nov-16 12:30N 48°49' W 005°28'713.2
2017-Nov-16 11:58N 48°45' W 005°36'5 7.3
2017-Nov-16 11:17N 48°41' W 005°40'613.1
2017-Nov-16 10:51N 48°36' W 005°44'612.7
2017-Nov-16 10:23N 48°31' W 005°48'712.1
2017-Nov-16 09:48N 48°25' W 005°53'512.0
2017-Nov-16 09:24N 48°20' W 005°57'611.9
2017-Nov-16 08:51N 48°14' W 006°01'411.6
2017-Nov-16 08:30N 48°11' W 006°04'911.5
2017-Nov-16 07:43N 48°03' W 006°10'211.4
2017-Nov-16 07:30N 48°01' W 006°12'611.3
2017-Nov-16 06:58N 47°55' W 006°16'511.3
2017-Nov-16 06:29N 47°50' W 006°20'511.3
2017-Nov-16 05:59N 47°45' W 006°24'611.4
2017-Nov-16 05:30N 47°40' W 006°27'611.2
2017-Nov-16 04:59N 47°35' W 006°31'611.6
2017-Nov-16 04:30N 47°30' W 006°35'712.5
2017-Nov-16 03:55N 47°24' W 006°40'716.9
2017-Nov-16 03:30N 47°18' W 006°45'5 9.3
2017-Nov-16 02:57N 47°13' W 006°48'2012.7
2017-Nov-16 01:24N 46°56' W 007°02'1612.3
2017-Nov-16 00:04N 46°41' W 007°13'312.1
2017-Nov-15 23:48N 46°38' W 007°15'412.4
2017-Nov-15 23:30N 46°35' W 007°18'16612.4
2017-Nov-15 10:04N 44°07' W 009°07'  

Dump ship's entire track history